sensor_id;sensor_type;location;lat;lon;timestamp;P1;durP1;ratioP1;P2;durP2;ratioP2
41685;SDS011;27370;42.764;23.432;2024-01-07T00:01:55;17.30;;;10.15;;
41685;SDS011;27370;42.764;23.432;2024-01-07T00:04:20;14.10;;;8.85;;
41685;SDS011;27370;42.764;23.432;2024-01-07T00:06:46;17.15;;;9.98;;
41685;SDS011;27370;42.764;23.432;2024-01-07T00:09:11;14.85;;;10.38;;
41685;SDS011;27370;42.764;23.432;2024-01-07T00:11:37;16.70;;;9.02;;
41685;SDS011;27370;42.764;23.432;2024-01-07T00:14:03;31.77;;;14.02;;
41685;SDS011;27370;42.764;23.432;2024-01-07T00:16:28;34.22;;;16.67;;
41685;SDS011;27370;42.764;23.432;2024-01-07T00:18:53;28.33;;;17.90;;
41685;SDS011;27370;42.764;23.432;2024-01-07T00:21:19;24.58;;;14.90;;
41685;SDS011;27370;42.764;23.432;2024-01-07T00:23:45;28.90;;;17.45;;
41685;SDS011;27370;42.764;23.432;2024-01-07T00:26:10;38.50;;;17.75;;
41685;SDS011;27370;42.764;23.432;2024-01-07T00:28:35;29.40;;;16.77;;
41685;SDS011;27370;42.764;23.432;2024-01-07T00:31:01;33.70;;;18.17;;
41685;SDS011;27370;42.764;23.432;2024-01-07T00:33:26;33.17;;;16.23;;
41685;SDS011;27370;42.764;23.432;2024-01-07T00:35:51;33.17;;;18.70;;
41685;SDS011;27370;42.764;23.432;2024-01-07T00:38:16;19.90;;;12.27;;
41685;SDS011;27370;42.764;23.432;2024-01-07T00:40:42;16.95;;;10.85;;
41685;SDS011;27370;42.764;23.432;2024-01-07T00:43:07;24.50;;;12.43;;
41685;SDS011;27370;42.764;23.432;2024-01-07T00:45:32;23.80;;;12.75;;
41685;SDS011;27370;42.764;23.432;2024-01-07T00:47:58;27.70;;;13.25;;
41685;SDS011;27370;42.764;23.432;2024-01-07T00:50:24;16.83;;;10.25;;
41685;SDS011;27370;42.764;23.432;2024-01-07T00:52:49;25.20;;;14.23;;
41685;SDS011;27370;42.764;23.432;2024-01-07T00:55:15;22.15;;;11.32;;
41685;SDS011;27370;42.764;23.432;2024-01-07T00:57:40;26.67;;;14.02;;
41685;SDS011;27370;42.764;23.432;2024-01-07T01:00:06;20.52;;;10.50;;
41685;SDS011;27370;42.764;23.432;2024-01-07T01:02:33;18.00;;;9.82;;
41685;SDS011;27370;42.764;23.432;2024-01-07T01:04:58;22.98;;;10.77;;
41685;SDS011;27370;42.764;23.432;2024-01-07T01:07:23;12.52;;;7.53;;
41685;SDS011;27370;42.764;23.432;2024-01-07T01:09:49;19.70;;;9.88;;
41685;SDS011;27370;42.764;23.432;2024-01-07T01:12:14;20.25;;;9.93;;
41685;SDS011;27370;42.764;23.432;2024-01-07T01:14:40;20.25;;;10.00;;
41685;SDS011;27370;42.764;23.432;2024-01-07T01:17:06;21.40;;;11.25;;
41685;SDS011;27370;42.764;23.432;2024-01-07T01:19:31;23.95;;;11.75;;
41685;SDS011;27370;42.764;23.432;2024-01-07T01:21:56;33.75;;;18.55;;
41685;SDS011;27370;42.764;23.432;2024-01-07T01:24:22;21.85;;;14.27;;
41685;SDS011;27370;42.764;23.432;2024-01-07T01:26:47;32.92;;;18.90;;
41685;SDS011;27370;42.764;23.432;2024-01-07T01:29:12;30.40;;;19.73;;
41685;SDS011;27370;42.764;23.432;2024-01-07T01:31:38;35.28;;;20.15;;
41685;SDS011;27370;42.764;23.432;2024-01-07T01:34:03;31.75;;;19.80;;
41685;SDS011;27370;42.764;23.432;2024-01-07T01:36:30;38.50;;;19.83;;
41685;SDS011;27370;42.764;23.432;2024-01-07T01:38:55;33.05;;;18.40;;
41685;SDS011;27370;42.764;23.432;2024-01-07T01:41:21;36.17;;;18.67;;
41685;SDS011;27370;42.764;23.432;2024-01-07T01:43:46;32.38;;;17.02;;
41685;SDS011;27370;42.764;23.432;2024-01-07T01:46:11;34.10;;;19.98;;
41685;SDS011;27370;42.764;23.432;2024-01-07T01:48:37;33.45;;;16.63;;
41685;SDS011;27370;42.764;23.432;2024-01-07T01:51:02;35.72;;;18.75;;
41685;SDS011;27370;42.764;23.432;2024-01-07T01:53:28;32.67;;;17.45;;
41685;SDS011;27370;42.764;23.432;2024-01-07T01:55:54;31.35;;;16.90;;
41685;SDS011;27370;42.764;23.432;2024-01-07T01:58:20;38.17;;;20.35;;
41685;SDS011;27370;42.764;23.432;2024-01-07T02:00:46;40.35;;;21.33;;
41685;SDS011;27370;42.764;23.432;2024-01-07T02:03:12;33.17;;;18.83;;
41685;SDS011;27370;42.764;23.432;2024-01-07T02:05:37;40.35;;;21.08;;
41685;SDS011;27370;42.764;23.432;2024-01-07T02:08:03;32.13;;;19.05;;
41685;SDS011;27370;42.764;23.432;2024-01-07T02:10:29;34.88;;;18.70;;
41685;SDS011;27370;42.764;23.432;2024-01-07T02:12:59;38.85;;;20.88;;
41685;SDS011;27370;42.764;23.432;2024-01-07T02:15:25;29.75;;;18.60;;
41685;SDS011;27370;42.764;23.432;2024-01-07T02:17:50;28.85;;;18.55;;
41685;SDS011;27370;42.764;23.432;2024-01-07T02:20:15;25.63;;;17.00;;
41685;SDS011;27370;42.764;23.432;2024-01-07T02:22:41;30.25;;;18.45;;
41685;SDS011;27370;42.764;23.432;2024-01-07T02:25:06;33.55;;;18.45;;
41685;SDS011;27370;42.764;23.432;2024-01-07T02:27:31;37.53;;;19.30;;
41685;SDS011;27370;42.764;23.432;2024-01-07T02:29:57;35.35;;;20.08;;
41685;SDS011;27370;42.764;23.432;2024-01-07T02:32:22;33.17;;;19.02;;
41685;SDS011;27370;42.764;23.432;2024-01-07T02:34:47;31.73;;;18.90;;
41685;SDS011;27370;42.764;23.432;2024-01-07T02:37:13;33.88;;;20.33;;
41685;SDS011;27370;42.764;23.432;2024-01-07T02:39:38;36.75;;;19.45;;
41685;SDS011;27370;42.764;23.432;2024-01-07T02:42:04;32.67;;;17.27;;
41685;SDS011;27370;42.764;23.432;2024-01-07T02:44:30;30.75;;;16.13;;
41685;SDS011;27370;42.764;23.432;2024-01-07T02:46:55;21.15;;;15.80;;
41685;SDS011;27370;42.764;23.432;2024-01-07T02:49:21;32.97;;;18.63;;
41685;SDS011;27370;42.764;23.432;2024-01-07T02:51:46;35.50;;;21.25;;
41685;SDS011;27370;42.764;23.432;2024-01-07T02:54:15;30.48;;;19.48;;
41685;SDS011;27370;42.764;23.432;2024-01-07T02:56:40;25.05;;;17.00;;
41685;SDS011;27370;42.764;23.432;2024-01-07T02:59:05;28.67;;;17.52;;
41685;SDS011;27370;42.764;23.432;2024-01-07T03:01:31;27.05;;;18.33;;
41685;SDS011;27370;42.764;23.432;2024-01-07T03:03:57;30.33;;;17.85;;
41685;SDS011;27370;42.764;23.432;2024-01-07T03:06:22;26.85;;;17.85;;
41685;SDS011;27370;42.764;23.432;2024-01-07T03:08:51;30.10;;;16.10;;
41685;SDS011;27370;42.764;23.432;2024-01-07T03:11:16;27.33;;;16.67;;
41685;SDS011;27370;42.764;23.432;2024-01-07T03:13:41;33.17;;;19.35;;
41685;SDS011;27370;42.764;23.432;2024-01-07T03:16:07;33.55;;;21.05;;
41685;SDS011;27370;42.764;23.432;2024-01-07T03:18:32;38.67;;;21.60;;
41685;SDS011;27370;42.764;23.432;2024-01-07T03:20:58;30.38;;;22.45;;
41685;SDS011;27370;42.764;23.432;2024-01-07T03:23:23;30.58;;;19.50;;
41685;SDS011;27370;42.764;23.432;2024-01-07T03:25:49;41.25;;;21.30;;
41685;SDS011;27370;42.764;23.432;2024-01-07T03:28:14;37.55;;;21.80;;
41685;SDS011;27370;42.764;23.432;2024-01-07T03:30:39;49.22;;;24.45;;
41685;SDS011;27370;42.764;23.432;2024-01-07T03:33:05;30.08;;;19.08;;
41685;SDS011;27370;42.764;23.432;2024-01-07T03:35:30;31.45;;;18.05;;
41685;SDS011;27370;42.764;23.432;2024-01-07T03:37:55;28.48;;;14.07;;
41685;SDS011;27370;42.764;23.432;2024-01-07T03:40:21;29.25;;;17.58;;
41685;SDS011;27370;42.764;23.432;2024-01-07T03:42:47;33.33;;;18.25;;
41685;SDS011;27370;42.764;23.432;2024-01-07T03:45:12;24.70;;;16.80;;
41685;SDS011;27370;42.764;23.432;2024-01-07T03:47:38;27.75;;;15.85;;
41685;SDS011;27370;42.764;23.432;2024-01-07T03:50:03;28.95;;;16.50;;
41685;SDS011;27370;42.764;23.432;2024-01-07T03:52:28;32.67;;;17.05;;
41685;SDS011;27370;42.764;23.432;2024-01-07T03:54:54;28.15;;;14.65;;
41685;SDS011;27370;42.764;23.432;2024-01-07T03:57:20;25.50;;;13.75;;
41685;SDS011;27370;42.764;23.432;2024-01-07T03:59:46;30.10;;;15.07;;
41685;SDS011;27370;42.764;23.432;2024-01-07T04:02:11;28.08;;;17.83;;
41685;SDS011;27370;42.764;23.432;2024-01-07T04:04:37;32.90;;;19.10;;
41685;SDS011;27370;42.764;23.432;2024-01-07T04:07:02;33.92;;;21.73;;
41685;SDS011;27370;42.764;23.432;2024-01-07T04:09:27;37.13;;;23.55;;
41685;SDS011;27370;42.764;23.432;2024-01-07T04:11:53;45.35;;;28.25;;
41685;SDS011;27370;42.764;23.432;2024-01-07T04:14:18;54.33;;;33.55;;
41685;SDS011;27370;42.764;23.432;2024-01-07T04:16:43;42.08;;;23.92;;
41685;SDS011;27370;42.764;23.432;2024-01-07T04:19:09;60.45;;;31.42;;
41685;SDS011;27370;42.764;23.432;2024-01-07T04:21:34;54.13;;;31.63;;
41685;SDS011;27370;42.764;23.432;2024-01-07T04:24:00;62.63;;;34.58;;
41685;SDS011;27370;42.764;23.432;2024-01-07T04:26:26;61.75;;;31.98;;
41685;SDS011;27370;42.764;23.432;2024-01-07T04:28:51;59.38;;;30.23;;
41685;SDS011;27370;42.764;23.432;2024-01-07T04:31:16;57.00;;;29.60;;
41685;SDS011;27370;42.764;23.432;2024-01-07T04:33:42;56.88;;;31.73;;
41685;SDS011;27370;42.764;23.432;2024-01-07T04:36:07;49.78;;;28.25;;
41685;SDS011;27370;42.764;23.432;2024-01-07T04:38:32;47.65;;;25.02;;
41685;SDS011;27370;42.764;23.432;2024-01-07T04:40:58;37.90;;;23.27;;
41685;SDS011;27370;42.764;23.432;2024-01-07T04:43:23;42.03;;;22.75;;
41685;SDS011;27370;42.764;23.432;2024-01-07T04:45:48;39.03;;;26.60;;
41685;SDS011;27370;42.764;23.432;2024-01-07T04:48:14;34.60;;;20.63;;
41685;SDS011;27370;42.764;23.432;2024-01-07T04:50:40;25.23;;;16.50;;
41685;SDS011;27370;42.764;23.432;2024-01-07T04:53:07;32.92;;;19.45;;
41685;SDS011;27370;42.764;23.432;2024-01-07T04:55:32;29.55;;;19.40;;
41685;SDS011;27370;42.764;23.432;2024-01-07T04:57:58;33.28;;;15.25;;
41685;SDS011;27370;42.764;23.432;2024-01-07T05:00:23;23.05;;;13.27;;
41685;SDS011;27370;42.764;23.432;2024-01-07T05:02:48;16.63;;;11.52;;
41685;SDS011;27370;42.764;23.432;2024-01-07T05:05:14;17.85;;;9.93;;
41685;SDS011;27370;42.764;23.432;2024-01-07T05:07:39;17.90;;;9.55;;
41685;SDS011;27370;42.764;23.432;2024-01-07T05:10:04;14.60;;;7.53;;
41685;SDS011;27370;42.764;23.432;2024-01-07T05:12:30;13.52;;;8.07;;
41685;SDS011;27370;42.764;23.432;2024-01-07T05:14:55;10.23;;;7.10;;
41685;SDS011;27370;42.764;23.432;2024-01-07T05:17:21;14.20;;;7.97;;
41685;SDS011;27370;42.764;23.432;2024-01-07T05:19:46;12.45;;;6.43;;
41685;SDS011;27370;42.764;23.432;2024-01-07T05:22:11;14.82;;;6.43;;
41685;SDS011;27370;42.764;23.432;2024-01-07T05:24:37;12.32;;;6.50;;
41685;SDS011;27370;42.764;23.432;2024-01-07T05:27:03;8.85;;;6.47;;
41685;SDS011;27370;42.764;23.432;2024-01-07T05:29:29;10.13;;;7.38;;
41685;SDS011;27370;42.764;23.432;2024-01-07T05:31:54;10.25;;;7.40;;
41685;SDS011;27370;42.764;23.432;2024-01-07T05:34:20;11.45;;;6.90;;
41685;SDS011;27370;42.764;23.432;2024-01-07T05:36:45;10.43;;;6.22;;
41685;SDS011;27370;42.764;23.432;2024-01-07T05:39:10;8.88;;;5.10;;
41685;SDS011;27370;42.764;23.432;2024-01-07T05:41:39;12.77;;;6.38;;
41685;SDS011;27370;42.764;23.432;2024-01-07T05:44:06;9.38;;;5.50;;
41685;SDS011;27370;42.764;23.432;2024-01-07T05:46:31;11.93;;;7.97;;
41685;SDS011;27370;42.764;23.432;2024-01-07T05:48:56;17.58;;;10.52;;
41685;SDS011;27370;42.764;23.432;2024-01-07T05:51:22;19.38;;;11.55;;
41685;SDS011;27370;42.764;23.432;2024-01-07T05:53:47;16.77;;;10.93;;
41685;SDS011;27370;42.764;23.432;2024-01-07T05:56:12;15.15;;;11.15;;
41685;SDS011;27370;42.764;23.432;2024-01-07T05:58:38;19.88;;;11.52;;
41685;SDS011;27370;42.764;23.432;2024-01-07T06:01:03;20.25;;;11.05;;
41685;SDS011;27370;42.764;23.432;2024-01-07T06:03:29;20.92;;;12.30;;
41685;SDS011;27370;42.764;23.432;2024-01-07T06:05:54;19.20;;;12.05;;
41685;SDS011;27370;42.764;23.432;2024-01-07T06:08:19;19.45;;;10.88;;
41685;SDS011;27370;42.764;23.432;2024-01-07T06:10:45;17.33;;;9.60;;
41685;SDS011;27370;42.764;23.432;2024-01-07T06:13:10;24.67;;;12.02;;
41685;SDS011;27370;42.764;23.432;2024-01-07T06:15:35;21.45;;;12.93;;
41685;SDS011;27370;42.764;23.432;2024-01-07T06:18:01;16.13;;;10.02;;
41685;SDS011;27370;42.764;23.432;2024-01-07T06:20:26;22.00;;;12.20;;
41685;SDS011;27370;42.764;23.432;2024-01-07T06:22:51;35.80;;;22.48;;
41685;SDS011;27370;42.764;23.432;2024-01-07T06:25:17;37.92;;;22.00;;
41685;SDS011;27370;42.764;23.432;2024-01-07T06:27:42;29.20;;;19.23;;
41685;SDS011;27370;42.764;23.432;2024-01-07T06:30:08;37.65;;;24.90;;
41685;SDS011;27370;42.764;23.432;2024-01-07T06:32:33;32.55;;;19.55;;
41685;SDS011;27370;42.764;23.432;2024-01-07T06:34:58;26.70;;;17.67;;
41685;SDS011;27370;42.764;23.432;2024-01-07T06:37:24;23.13;;;16.95;;
41685;SDS011;27370;42.764;23.432;2024-01-07T06:39:50;24.80;;;17.30;;
41685;SDS011;27370;42.764;23.432;2024-01-07T06:42:15;35.13;;;16.13;;
41685;SDS011;27370;42.764;23.432;2024-01-07T06:44:41;22.55;;;16.00;;
41685;SDS011;27370;42.764;23.432;2024-01-07T06:47:06;25.98;;;17.05;;
41685;SDS011;27370;42.764;23.432;2024-01-07T06:49:32;33.10;;;17.52;;
41685;SDS011;27370;42.764;23.432;2024-01-07T06:51:57;22.73;;;14.27;;
41685;SDS011;27370;42.764;23.432;2024-01-07T06:54:22;26.80;;;16.42;;
41685;SDS011;27370;42.764;23.432;2024-01-07T06:56:48;25.95;;;15.55;;
41685;SDS011;27370;42.764;23.432;2024-01-07T06:59:13;36.05;;;23.95;;
41685;SDS011;27370;42.764;23.432;2024-01-07T07:01:39;26.10;;;14.40;;
41685;SDS011;27370;42.764;23.432;2024-01-07T07:04:05;21.15;;;14.02;;
41685;SDS011;27370;42.764;23.432;2024-01-07T07:06:30;19.02;;;11.63;;
41685;SDS011;27370;42.764;23.432;2024-01-07T07:08:55;18.27;;;12.30;;
41685;SDS011;27370;42.764;23.432;2024-01-07T07:11:21;23.10;;;14.15;;
41685;SDS011;27370;42.764;23.432;2024-01-07T07:13:46;31.33;;;18.27;;
41685;SDS011;27370;42.764;23.432;2024-01-07T07:16:11;30.48;;;15.40;;
41685;SDS011;27370;42.764;23.432;2024-01-07T07:18:37;36.88;;;19.90;;
41685;SDS011;27370;42.764;23.432;2024-01-07T07:21:02;39.10;;;15.63;;
41685;SDS011;27370;42.764;23.432;2024-01-07T07:23:28;27.50;;;16.02;;
41685;SDS011;27370;42.764;23.432;2024-01-07T07:25:53;33.20;;;19.48;;
41685;SDS011;27370;42.764;23.432;2024-01-07T07:28:19;28.05;;;17.90;;
41685;SDS011;27370;42.764;23.432;2024-01-07T07:30:44;27.58;;;18.42;;
41685;SDS011;27370;42.764;23.432;2024-01-07T07:33:09;26.02;;;17.70;;
41685;SDS011;27370;42.764;23.432;2024-01-07T07:35:35;28.30;;;18.55;;
41685;SDS011;27370;42.764;23.432;2024-01-07T07:38:00;20.50;;;13.23;;
41685;SDS011;27370;42.764;23.432;2024-01-07T07:40:25;17.17;;;11.25;;
41685;SDS011;27370;42.764;23.432;2024-01-07T07:42:51;11.60;;;9.23;;
41685;SDS011;27370;42.764;23.432;2024-01-07T07:45:16;19.25;;;12.10;;
41685;SDS011;27370;42.764;23.432;2024-01-07T07:47:42;9.60;;;7.35;;
41685;SDS011;27370;42.764;23.432;2024-01-07T07:50:10;10.70;;;8.45;;
41685;SDS011;27370;42.764;23.432;2024-01-07T07:52:35;14.40;;;8.75;;
41685;SDS011;27370;42.764;23.432;2024-01-07T07:55:01;10.18;;;7.07;;
41685;SDS011;27370;42.764;23.432;2024-01-07T07:57:26;7.93;;;4.03;;
41685;SDS011;27370;42.764;23.432;2024-01-07T07:59:52;6.00;;;4.68;;
41685;SDS011;27370;42.764;23.432;2024-01-07T08:02:18;7.45;;;4.82;;
41685;SDS011;27370;42.764;23.432;2024-01-07T08:04:43;10.98;;;4.80;;
41685;SDS011;27370;42.764;23.432;2024-01-07T08:07:09;7.43;;;4.65;;
41685;SDS011;27370;42.764;23.432;2024-01-07T08:09:35;7.03;;;3.72;;
41685;SDS011;27370;42.764;23.432;2024-01-07T08:12:03;4.85;;;2.25;;
41685;SDS011;27370;42.764;23.432;2024-01-07T08:14:29;3.65;;;1.70;;
41685;SDS011;27370;42.764;23.432;2024-01-07T08:16:54;3.22;;;2.20;;
41685;SDS011;27370;42.764;23.432;2024-01-07T08:19:20;4.57;;;1.80;;
41685;SDS011;27370;42.764;23.432;2024-01-07T08:21:45;3.35;;;2.00;;
41685;SDS011;27370;42.764;23.432;2024-01-07T08:24:11;2.13;;;1.50;;
41685;SDS011;27370;42.764;23.432;2024-01-07T08:26:36;1.40;;;1.30;;
41685;SDS011;27370;42.764;23.432;2024-01-07T08:29:01;5.95;;;3.90;;
41685;SDS011;27370;42.764;23.432;2024-01-07T08:31:27;21.23;;;11.18;;
41685;SDS011;27370;42.764;23.432;2024-01-07T08:33:52;14.98;;;9.38;;
41685;SDS011;27370;42.764;23.432;2024-01-07T08:36:18;10.90;;;7.32;;
41685;SDS011;27370;42.764;23.432;2024-01-07T08:38:43;11.35;;;6.47;;
41685;SDS011;27370;42.764;23.432;2024-01-07T08:41:09;9.95;;;6.47;;
41685;SDS011;27370;42.764;23.432;2024-01-07T08:43:34;9.63;;;6.63;;
41685;SDS011;27370;42.764;23.432;2024-01-07T08:46:00;12.93;;;6.78;;
41685;SDS011;27370;42.764;23.432;2024-01-07T08:48:25;31.02;;;15.25;;
41685;SDS011;27370;42.764;23.432;2024-01-07T08:50:51;16.02;;;8.27;;
41685;SDS011;27370;42.764;23.432;2024-01-07T08:53:17;13.30;;;8.65;;
41685;SDS011;27370;42.764;23.432;2024-01-07T08:55:43;11.05;;;8.10;;
41685;SDS011;27370;42.764;23.432;2024-01-07T08:58:08;12.27;;;7.93;;
41685;SDS011;27370;42.764;23.432;2024-01-07T09:00:34;12.27;;;7.85;;
41685;SDS011;27370;42.764;23.432;2024-01-07T09:02:59;13.45;;;8.52;;
41685;SDS011;27370;42.764;23.432;2024-01-07T09:05:25;13.38;;;8.73;;
41685;SDS011;27370;42.764;23.432;2024-01-07T09:07:50;4.32;;;2.88;;
41685;SDS011;27370;42.764;23.432;2024-01-07T09:10:15;5.63;;;2.60;;
41685;SDS011;27370;42.764;23.432;2024-01-07T09:12:41;4.30;;;2.13;;
41685;SDS011;27370;42.764;23.432;2024-01-07T09:15:07;4.57;;;2.58;;
41685;SDS011;27370;42.764;23.432;2024-01-07T09:17:36;5.07;;;2.33;;
41685;SDS011;27370;42.764;23.432;2024-01-07T09:20:01;2.53;;;1.55;;
41685;SDS011;27370;42.764;23.432;2024-01-07T09:22:29;5.65;;;2.17;;
41685;SDS011;27370;42.764;23.432;2024-01-07T09:24:55;3.30;;;1.90;;
41685;SDS011;27370;42.764;23.432;2024-01-07T09:27:21;6.35;;;3.20;;
41685;SDS011;27370;42.764;23.432;2024-01-07T09:29:46;5.60;;;2.30;;
41685;SDS011;27370;42.764;23.432;2024-01-07T09:32:12;4.20;;;2.70;;
41685;SDS011;27370;42.764;23.432;2024-01-07T09:34:37;4.70;;;3.45;;
41685;SDS011;27370;42.764;23.432;2024-01-07T09:37:02;7.75;;;4.82;;
41685;SDS011;27370;42.764;23.432;2024-01-07T09:39:28;6.18;;;4.45;;
41685;SDS011;27370;42.764;23.432;2024-01-07T09:41:53;8.57;;;5.57;;
41685;SDS011;27370;42.764;23.432;2024-01-07T09:44:19;12.20;;;6.88;;
41685;SDS011;27370;42.764;23.432;2024-01-07T09:46:44;14.18;;;7.35;;
41685;SDS011;27370;42.764;23.432;2024-01-07T09:49:10;16.98;;;6.85;;
41685;SDS011;27370;42.764;23.432;2024-01-07T09:51:36;14.82;;;6.95;;
41685;SDS011;27370;42.764;23.432;2024-01-07T09:54:02;10.75;;;6.68;;
41685;SDS011;27370;42.764;23.432;2024-01-07T09:56:36;10.85;;;7.13;;
41685;SDS011;27370;42.764;23.432;2024-01-07T09:59:03;12.30;;;8.00;;
41685;SDS011;27370;42.764;23.432;2024-01-07T10:01:29;14.25;;;7.35;;
41685;SDS011;27370;42.764;23.432;2024-01-07T10:03:55;13.80;;;7.03;;
41685;SDS011;27370;42.764;23.432;2024-01-07T10:06:22;10.63;;;7.10;;
41685;SDS011;27370;42.764;23.432;2024-01-07T10:08:47;9.73;;;7.05;;
41685;SDS011;27370;42.764;23.432;2024-01-07T10:11:15;15.00;;;7.65;;
41685;SDS011;27370;42.764;23.432;2024-01-07T10:13:41;15.50;;;7.30;;
41685;SDS011;27370;42.764;23.432;2024-01-07T10:16:07;11.98;;;6.85;;
41685;SDS011;27370;42.764;23.432;2024-01-07T10:18:32;11.65;;;7.22;;
41685;SDS011;27370;42.764;23.432;2024-01-07T10:21:02;12.75;;;7.65;;
41685;SDS011;27370;42.764;23.432;2024-01-07T10:23:31;11.52;;;7.10;;
41685;SDS011;27370;42.764;23.432;2024-01-07T10:25:57;14.23;;;9.27;;
41685;SDS011;27370;42.764;23.432;2024-01-07T10:28:22;13.30;;;7.60;;
41685;SDS011;27370;42.764;23.432;2024-01-07T10:30:51;12.38;;;9.10;;
41685;SDS011;27370;42.764;23.432;2024-01-07T10:33:17;9.90;;;7.13;;
41685;SDS011;27370;42.764;23.432;2024-01-07T10:35:51;13.98;;;8.35;;
41685;SDS011;27370;42.764;23.432;2024-01-07T10:38:18;14.55;;;8.57;;
41685;SDS011;27370;42.764;23.432;2024-01-07T10:40:44;10.73;;;7.32;;
41685;SDS011;27370;42.764;23.432;2024-01-07T10:43:10;13.73;;;8.50;;
41685;SDS011;27370;42.764;23.432;2024-01-07T10:45:35;8.48;;;6.20;;
41685;SDS011;27370;42.764;23.432;2024-01-07T10:48:01;9.90;;;5.68;;
41685;SDS011;27370;42.764;23.432;2024-01-07T10:50:29;8.45;;;5.10;;
41685;SDS011;27370;42.764;23.432;2024-01-07T10:53:03;5.80;;;3.45;;
41685;SDS011;27370;42.764;23.432;2024-01-07T10:55:31;6.25;;;3.20;;
41685;SDS011;27370;42.764;23.432;2024-01-07T10:57:58;3.85;;;1.88;;
41685;SDS011;27370;42.764;23.432;2024-01-07T11:00:25;5.32;;;1.83;;
41685;SDS011;27370;42.764;23.432;2024-01-07T11:05:34;6.65;;;2.03;;
41685;SDS011;27370;42.764;23.432;2024-01-07T11:10:42;4.63;;;2.13;;
41685;SDS011;27370;42.764;23.432;2024-01-07T11:13:08;6.03;;;1.83;;
41685;SDS011;27370;42.764;23.432;2024-01-07T11:18:18;7.25;;;2.15;;
41685;SDS011;27370;42.764;23.432;2024-01-07T11:20:44;6.97;;;1.42;;
41685;SDS011;27370;42.764;23.432;2024-01-07T11:25:55;4.88;;;3.10;;
41685;SDS011;27370;42.764;23.432;2024-01-07T11:28:42;5.65;;;3.47;;
41685;SDS011;27370;42.764;23.432;2024-01-07T11:31:07;6.50;;;3.70;;
41685;SDS011;27370;42.764;23.432;2024-01-07T11:33:34;4.75;;;3.05;;
41685;SDS011;27370;42.764;23.432;2024-01-07T11:36:02;6.75;;;2.85;;
41685;SDS011;27370;42.764;23.432;2024-01-07T11:38:27;9.88;;;3.75;;
41685;SDS011;27370;42.764;23.432;2024-01-07T11:40:53;5.68;;;3.65;;
41685;SDS011;27370;42.764;23.432;2024-01-07T11:43:19;7.15;;;3.67;;
41685;SDS011;27370;42.764;23.432;2024-01-07T11:45:45;12.50;;;5.75;;
41685;SDS011;27370;42.764;23.432;2024-01-07T11:48:10;7.57;;;5.30;;
41685;SDS011;27370;42.764;23.432;2024-01-07T11:50:36;12.82;;;5.40;;
41685;SDS011;27370;42.764;23.432;2024-01-07T11:53:01;11.23;;;6.03;;
41685;SDS011;27370;42.764;23.432;2024-01-07T11:55:27;7.38;;;5.13;;
41685;SDS011;27370;42.764;23.432;2024-01-07T11:57:55;11.60;;;6.88;;
41685;SDS011;27370;42.764;23.432;2024-01-07T12:00:21;13.65;;;7.47;;
41685;SDS011;27370;42.764;23.432;2024-01-07T12:02:46;8.55;;;5.25;;
41685;SDS011;27370;42.764;23.432;2024-01-07T12:05:12;11.10;;;6.45;;
41685;SDS011;27370;42.764;23.432;2024-01-07T12:07:40;9.85;;;5.78;;
41685;SDS011;27370;42.764;23.432;2024-01-07T12:10:09;6.88;;;5.53;;
41685;SDS011;27370;42.764;23.432;2024-01-07T12:12:41;10.88;;;6.07;;
41685;SDS011;27370;42.764;23.432;2024-01-07T12:15:07;9.48;;;4.97;;
41685;SDS011;27370;42.764;23.432;2024-01-07T12:17:33;9.20;;;4.93;;
41685;SDS011;27370;42.764;23.432;2024-01-07T12:19:59;9.27;;;3.90;;
41685;SDS011;27370;42.764;23.432;2024-01-07T12:22:26;8.23;;;4.22;;
41685;SDS011;27370;42.764;23.432;2024-01-07T12:25:07;8.65;;;4.72;;
41685;SDS011;27370;42.764;23.432;2024-01-07T12:27:32;25.00;;;10.50;;
41685;SDS011;27370;42.764;23.432;2024-01-07T12:29:59;9.40;;;5.57;;
41685;SDS011;27370;42.764;23.432;2024-01-07T12:32:27;9.93;;;4.90;;
41685;SDS011;27370;42.764;23.432;2024-01-07T12:34:53;10.35;;;5.82;;
41685;SDS011;27370;42.764;23.432;2024-01-07T12:37:18;29.98;;;18.90;;
41685;SDS011;27370;42.764;23.432;2024-01-07T12:39:44;48.63;;;25.98;;
41685;SDS011;27370;42.764;23.432;2024-01-07T12:42:09;34.67;;;18.92;;
41685;SDS011;27370;42.764;23.432;2024-01-07T12:44:38;58.53;;;33.35;;
41685;SDS011;27370;42.764;23.432;2024-01-07T12:47:03;22.00;;;13.68;;
41685;SDS011;27370;42.764;23.432;2024-01-07T12:49:29;20.55;;;12.13;;
41685;SDS011;27370;42.764;23.432;2024-01-07T12:51:54;15.82;;;8.07;;
41685;SDS011;27370;42.764;23.432;2024-01-07T12:54:20;18.42;;;9.18;;
41685;SDS011;27370;42.764;23.432;2024-01-07T12:56:46;16.77;;;10.40;;
41685;SDS011;27370;42.764;23.432;2024-01-07T12:59:12;17.35;;;10.20;;
41685;SDS011;27370;42.764;23.432;2024-01-07T13:01:37;13.80;;;9.43;;
41685;SDS011;27370;42.764;23.432;2024-01-07T13:04:02;12.80;;;8.27;;
41685;SDS011;27370;42.764;23.432;2024-01-07T13:06:28;12.65;;;8.75;;
41685;SDS011;27370;42.764;23.432;2024-01-07T13:08:54;14.15;;;8.60;;
41685;SDS011;27370;42.764;23.432;2024-01-07T13:11:19;13.90;;;8.38;;
41685;SDS011;27370;42.764;23.432;2024-01-07T13:13:45;10.98;;;7.57;;
41685;SDS011;27370;42.764;23.432;2024-01-07T13:16:10;12.13;;;8.00;;
41685;SDS011;27370;42.764;23.432;2024-01-07T13:18:36;13.57;;;7.80;;
41685;SDS011;27370;42.764;23.432;2024-01-07T13:21:02;14.13;;;9.23;;
41685;SDS011;27370;42.764;23.432;2024-01-07T13:23:28;17.10;;;8.90;;
41685;SDS011;27370;42.764;23.432;2024-01-07T13:25:54;14.20;;;8.90;;
41685;SDS011;27370;42.764;23.432;2024-01-07T13:28:20;14.10;;;8.63;;
41685;SDS011;27370;42.764;23.432;2024-01-07T13:30:46;12.27;;;7.10;;
41685;SDS011;27370;42.764;23.432;2024-01-07T13:33:11;20.27;;;9.10;;
41685;SDS011;27370;42.764;23.432;2024-01-07T13:35:36;15.05;;;9.88;;
41685;SDS011;27370;42.764;23.432;2024-01-07T13:38:02;10.90;;;8.65;;
41685;SDS011;27370;42.764;23.432;2024-01-07T13:40:27;13.38;;;9.25;;
41685;SDS011;27370;42.764;23.432;2024-01-07T13:42:53;13.85;;;10.02;;
41685;SDS011;27370;42.764;23.432;2024-01-07T13:45:19;16.02;;;10.18;;
41685;SDS011;27370;42.764;23.432;2024-01-07T13:47:46;17.67;;;12.40;;
41685;SDS011;27370;42.764;23.432;2024-01-07T13:50:12;11.32;;;7.90;;
41685;SDS011;27370;42.764;23.432;2024-01-07T13:52:37;14.10;;;8.88;;
41685;SDS011;27370;42.764;23.432;2024-01-07T13:55:02;21.75;;;10.95;;
41685;SDS011;27370;42.764;23.432;2024-01-07T13:57:28;16.85;;;10.48;;
41685;SDS011;27370;42.764;23.432;2024-01-07T13:59:55;20.77;;;11.38;;
41685;SDS011;27370;42.764;23.432;2024-01-07T14:02:21;25.95;;;14.27;;
41685;SDS011;27370;42.764;23.432;2024-01-07T14:04:47;38.38;;;17.25;;
41685;SDS011;27370;42.764;23.432;2024-01-07T14:07:13;13.02;;;9.27;;
41685;SDS011;27370;42.764;23.432;2024-01-07T14:09:39;15.80;;;9.88;;
41685;SDS011;27370;42.764;23.432;2024-01-07T14:12:04;11.02;;;7.75;;
41685;SDS011;27370;42.764;23.432;2024-01-07T14:14:29;12.30;;;7.47;;
41685;SDS011;27370;42.764;23.432;2024-01-07T14:16:55;10.52;;;7.20;;
41685;SDS011;27370;42.764;23.432;2024-01-07T14:19:20;10.85;;;7.10;;
41685;SDS011;27370;42.764;23.432;2024-01-07T14:21:47;13.77;;;8.98;;